sensor_id;sensor_type;location;lat;lon;timestamp;P1;durP1;ratioP1;P2;durP2;ratioP2
14187;SDS011;7175;51.978;5.330;2022-10-16T00:00:57;37.20;;;34.70;;
14187;SDS011;7175;51.978;5.330;2022-10-16T00:03:25;38.37;;;35.87;;
14187;SDS011;7175;51.978;5.330;2022-10-16T00:05:58;40.17;;;37.57;;
14187;SDS011;7175;51.978;5.330;2022-10-16T00:08:29;39.03;;;36.43;;
14187;SDS011;7175;51.978;5.330;2022-10-16T00:11:01;39.63;;;37.03;;
14187;SDS011;7175;51.978;5.330;2022-10-16T00:13:31;40.40;;;37.80;;
14187;SDS011;7175;51.978;5.330;2022-10-16T00:16:00;40.07;;;37.47;;
14187;SDS011;7175;51.978;5.330;2022-10-16T00:18:29;40.17;;;37.57;;
14187;SDS011;7175;51.978;5.330;2022-10-16T00:21:01;40.23;;;37.63;;
14187;SDS011;7175;51.978;5.330;2022-10-16T00:23:31;40.90;;;38.20;;
14187;SDS011;7175;51.978;5.330;2022-10-16T00:26:01;41.20;;;38.50;;
14187;SDS011;7175;51.978;5.330;2022-10-16T00:28:30;41.50;;;38.80;;
14187;SDS011;7175;51.978;5.330;2022-10-16T00:31:01;41.67;;;38.97;;
14187;SDS011;7175;51.978;5.330;2022-10-16T00:33:30;41.67;;;38.97;;
14187;SDS011;7175;51.978;5.330;2022-10-16T00:35:58;42.47;;;39.77;;
14187;SDS011;7175;51.978;5.330;2022-10-16T00:38:26;43.67;;;40.87;;
14187;SDS011;7175;51.978;5.330;2022-10-16T00:40:56;43.97;;;41.07;;
14187;SDS011;7175;51.978;5.330;2022-10-16T00:46:15;41.57;;;38.87;;
14187;SDS011;7175;51.978;5.330;2022-10-16T00:48:48;43.77;;;40.87;;
14187;SDS011;7175;51.978;5.330;2022-10-16T00:51:20;43.07;;;40.27;;
14187;SDS011;7175;51.978;5.330;2022-10-16T00:53:53;43.37;;;40.57;;
14187;SDS011;7175;51.978;5.330;2022-10-16T00:56:24;42.93;;;40.13;;
14187;SDS011;7175;51.978;5.330;2022-10-16T00:58:52;42.93;;;40.13;;
14187;SDS011;7175;51.978;5.330;2022-10-16T01:01:20;42.97;;;40.17;;
14187;SDS011;7175;51.978;5.330;2022-10-16T01:03:49;43.67;;;40.77;;
14187;SDS011;7175;51.978;5.330;2022-10-16T01:06:23;42.97;;;40.17;;
14187;SDS011;7175;51.978;5.330;2022-10-16T01:09:05;42.40;;;39.67;;
14187;SDS011;7175;51.978;5.330;2022-10-16T01:11:44;42.10;;;39.40;;
14187;SDS011;7175;51.978;5.330;2022-10-16T01:14:20;41.53;;;38.83;;
14187;SDS011;7175;51.978;5.330;2022-10-16T01:16:55;42.83;;;40.03;;
14187;SDS011;7175;51.978;5.330;2022-10-16T01:19:40;43.13;;;40.33;;
14187;SDS011;7175;51.978;5.330;2022-10-16T01:22:25;42.27;;;39.47;;
14187;SDS011;7175;51.978;5.330;2022-10-16T01:25:05;43.07;;;40.27;;
14187;SDS011;7175;51.978;5.330;2022-10-16T01:27:40;42.07;;;39.37;;
14187;SDS011;7175;51.978;5.330;2022-10-16T01:30:13;41.07;;;38.37;;
14187;SDS011;7175;51.978;5.330;2022-10-16T01:32:47;40.23;;;37.63;;
14187;SDS011;7175;51.978;5.330;2022-10-16T01:35:18;42.03;;;39.33;;
14187;SDS011;7175;51.978;5.330;2022-10-16T01:37:51;42.37;;;39.67;;
14187;SDS011;7175;51.978;5.330;2022-10-16T01:40:23;41.80;;;39.10;;
14187;SDS011;7175;51.978;5.330;2022-10-16T01:42:56;41.67;;;38.97;;
14187;SDS011;7175;51.978;5.330;2022-10-16T01:45:28;42.67;;;39.87;;
14187;SDS011;7175;51.978;5.330;2022-10-16T01:48:00;43.00;;;40.20;;
14187;SDS011;7175;51.978;5.330;2022-10-16T01:50:31;43.07;;;40.27;;
14187;SDS011;7175;51.978;5.330;2022-10-16T01:53:02;42.90;;;40.10;;
14187;SDS011;7175;51.978;5.330;2022-10-16T01:55:32;42.67;;;39.87;;
14187;SDS011;7175;51.978;5.330;2022-10-16T01:58:04;43.50;;;40.70;;
14187;SDS011;7175;51.978;5.330;2022-10-16T02:00:36;43.33;;;40.53;;
14187;SDS011;7175;51.978;5.330;2022-10-16T02:03:05;45.40;;;42.40;;
14187;SDS011;7175;51.978;5.330;2022-10-16T02:05:37;44.10;;;41.20;;
14187;SDS011;7175;51.978;5.330;2022-10-16T02:08:09;45.70;;;42.60;;
14187;SDS011;7175;51.978;5.330;2022-10-16T02:10:37;44.37;;;41.47;;
14187;SDS011;7175;51.978;5.330;2022-10-16T02:13:08;43.30;;;40.50;;
14187;SDS011;7175;51.978;5.330;2022-10-16T02:15:38;43.07;;;40.27;;
14187;SDS011;7175;51.978;5.330;2022-10-16T02:18:07;43.60;;;40.80;;
14187;SDS011;7175;51.978;5.330;2022-10-16T02:20:40;43.70;;;40.90;;
14187;SDS011;7175;51.978;5.330;2022-10-16T02:23:14;44.80;;;41.90;;
14187;SDS011;7175;51.978;5.330;2022-10-16T02:25:48;43.93;;;41.13;;
14187;SDS011;7175;51.978;5.330;2022-10-16T02:28:22;44.40;;;41.50;;
14187;SDS011;7175;51.978;5.330;2022-10-16T02:30:54;43.33;;;40.53;;
14187;SDS011;7175;51.978;5.330;2022-10-16T02:33:26;44.70;;;41.80;;
14187;SDS011;7175;51.978;5.330;2022-10-16T02:35:56;46.40;;;43.40;;
14187;SDS011;7175;51.978;5.330;2022-10-16T02:38:25;45.90;;;42.90;;
14187;SDS011;7175;51.978;5.330;2022-10-16T02:40:54;45.97;;;42.97;;
14187;SDS011;7175;51.978;5.330;2022-10-16T02:43:24;45.83;;;42.83;;
14187;SDS011;7175;51.978;5.330;2022-10-16T02:45:52;46.63;;;43.63;;
14187;SDS011;7175;51.978;5.330;2022-10-16T02:48:20;48.17;;;44.97;;
14187;SDS011;7175;51.978;5.330;2022-10-16T02:50:49;48.37;;;45.27;;
14187;SDS011;7175;51.978;5.330;2022-10-16T02:53:17;48.47;;;45.30;;
14187;SDS011;7175;51.978;5.330;2022-10-16T02:55:45;48.90;;;45.70;;
14187;SDS011;7175;51.978;5.330;2022-10-16T02:58:13;49.17;;;45.97;;
14187;SDS011;7175;51.978;5.330;2022-10-16T03:00:43;50.50;;;47.20;;
14187;SDS011;7175;51.978;5.330;2022-10-16T03:03:11;49.10;;;45.90;;
14187;SDS011;7175;51.978;5.330;2022-10-16T03:05:40;53.17;;;49.10;;
14187;SDS011;7175;51.978;5.330;2022-10-16T03:08:08;50.20;;;46.87;;
14187;SDS011;7175;51.978;5.330;2022-10-16T03:10:36;50.50;;;47.20;;
14187;SDS011;7175;51.978;5.330;2022-10-16T03:13:04;50.87;;;47.57;;
14187;SDS011;7175;51.978;5.330;2022-10-16T03:15:32;49.47;;;46.17;;
14187;SDS011;7175;51.978;5.330;2022-10-16T03:18:02;49.67;;;46.37;;
14187;SDS011;7175;51.978;5.330;2022-10-16T03:20:30;51.47;;;48.07;;
14187;SDS011;7175;51.978;5.330;2022-10-16T03:22:58;52.60;;;49.20;;
14187;SDS011;7175;51.978;5.330;2022-10-16T03:25:26;53.70;;;50.30;;
14187;SDS011;7175;51.978;5.330;2022-10-16T03:27:54;54.03;;;50.53;;
14187;SDS011;7175;51.978;5.330;2022-10-16T03:30:22;53.47;;;49.97;;
14187;SDS011;7175;51.978;5.330;2022-10-16T03:32:50;54.20;;;50.60;;
14187;SDS011;7175;51.978;5.330;2022-10-16T03:35:22;53.07;;;49.57;;
14187;SDS011;7175;51.978;5.330;2022-10-16T03:37:50;53.77;;;50.23;;
14187;SDS011;7175;51.978;5.330;2022-10-16T03:40:18;53.93;;;50.33;;
14187;SDS011;7175;51.978;5.330;2022-10-16T03:42:47;55.47;;;51.77;;
14187;SDS011;7175;51.978;5.330;2022-10-16T03:45:15;54.30;;;50.70;;
14187;SDS011;7175;51.978;5.330;2022-10-16T03:47:43;55.20;;;51.50;;
14187;SDS011;7175;51.978;5.330;2022-10-16T03:50:11;55.37;;;51.67;;
14187;SDS011;7175;51.978;5.330;2022-10-16T03:52:41;54.40;;;50.80;;
14187;SDS011;7175;51.978;5.330;2022-10-16T03:55:09;54.67;;;51.07;;
14187;SDS011;7175;51.978;5.330;2022-10-16T03:57:37;57.00;;;53.20;;
14187;SDS011;7175;51.978;5.330;2022-10-16T04:00:05;55.93;;;52.23;;
14187;SDS011;7175;51.978;5.330;2022-10-16T04:02:34;55.00;;;51.30;;
14187;SDS011;7175;51.978;5.330;2022-10-16T04:05:02;55.27;;;51.57;;
14187;SDS011;7175;51.978;5.330;2022-10-16T04:07:30;55.47;;;51.77;;
14187;SDS011;7175;51.978;5.330;2022-10-16T04:10:00;55.30;;;51.60;;
14187;SDS011;7175;51.978;5.330;2022-10-16T04:12:28;55.27;;;51.57;;
14187;SDS011;7175;51.978;5.330;2022-10-16T04:14:56;56.83;;;53.13;;
14187;SDS011;7175;51.978;5.330;2022-10-16T04:17:24;56.30;;;52.60;;
14187;SDS011;7175;51.978;5.330;2022-10-16T04:19:53;56.20;;;52.50;;
14187;SDS011;7175;51.978;5.330;2022-10-16T04:22:21;56.10;;;52.40;;
14187;SDS011;7175;51.978;5.330;2022-10-16T04:24:49;55.43;;;51.80;;
14187;SDS011;7175;51.978;5.330;2022-10-16T04:27:19;54.60;;;51.00;;
14187;SDS011;7175;51.978;5.330;2022-10-16T04:29:48;58.80;;;55.00;;
14187;SDS011;7175;51.978;5.330;2022-10-16T04:32:16;56.13;;;52.43;;
14187;SDS011;7175;51.978;5.330;2022-10-16T04:34:44;56.00;;;52.30;;
14187;SDS011;7175;51.978;5.330;2022-10-16T04:37:12;56.17;;;52.47;;
14187;SDS011;7175;51.978;5.330;2022-10-16T04:39:40;57.23;;;53.43;;
14187;SDS011;7175;51.978;5.330;2022-10-16T04:42:09;56.93;;;53.23;;
14187;SDS011;7175;51.978;5.330;2022-10-16T04:44:38;58.47;;;54.67;;
14187;SDS011;7175;51.978;5.330;2022-10-16T04:47:06;57.53;;;53.73;;
14187;SDS011;7175;51.978;5.330;2022-10-16T04:49:35;59.10;;;55.20;;
14187;SDS011;7175;51.978;5.330;2022-10-16T04:52:03;59.13;;;55.03;;
14187;SDS011;7175;51.978;5.330;2022-10-16T04:54:32;58.23;;;54.23;;
14187;SDS011;7175;51.978;5.330;2022-10-16T04:57:01;58.93;;;54.93;;
14187;SDS011;7175;51.978;5.330;2022-10-16T04:59:29;62.10;;;58.00;;
14187;SDS011;7175;51.978;5.330;2022-10-16T05:01:58;61.07;;;56.97;;
14187;SDS011;7175;51.978;5.330;2022-10-16T05:04:26;61.90;;;57.80;;
14187;SDS011;7175;51.978;5.330;2022-10-16T05:06:54;61.90;;;57.80;;
14187;SDS011;7175;51.978;5.330;2022-10-16T05:09:22;64.40;;;60.20;;
14187;SDS011;7175;51.978;5.330;2022-10-16T05:11:50;64.37;;;60.10;;
14187;SDS011;7175;51.978;5.330;2022-10-16T05:14:19;63.80;;;59.53;;
14187;SDS011;7175;51.978;5.330;2022-10-16T05:16:47;64.57;;;60.27;;
14187;SDS011;7175;51.978;5.330;2022-10-16T05:19:17;64.00;;;59.70;;
14187;SDS011;7175;51.978;5.330;2022-10-16T05:21:53;64.87;;;60.57;;
14187;SDS011;7175;51.978;5.330;2022-10-16T05:24:21;64.83;;;60.33;;
14187;SDS011;7175;51.978;5.330;2022-10-16T05:26:49;64.60;;;60.30;;
14187;SDS011;7175;51.978;5.330;2022-10-16T05:29:18;64.83;;;60.43;;
14187;SDS011;7175;51.978;5.330;2022-10-16T05:31:46;64.70;;;60.40;;
14187;SDS011;7175;51.978;5.330;2022-10-16T05:34:18;65.70;;;61.30;;
14187;SDS011;7175;51.978;5.330;2022-10-16T05:36:47;65.33;;;60.97;;
14187;SDS011;7175;51.978;5.330;2022-10-16T05:39:15;66.00;;;61.60;;
14187;SDS011;7175;51.978;5.330;2022-10-16T05:41:44;67.37;;;62.87;;
14187;SDS011;7175;51.978;5.330;2022-10-16T05:44:12;66.80;;;62.30;;
14187;SDS011;7175;51.978;5.330;2022-10-16T05:46:40;65.67;;;61.27;;
14187;SDS011;7175;51.978;5.330;2022-10-16T05:49:09;67.10;;;62.60;;
14187;SDS011;7175;51.978;5.330;2022-10-16T05:51:38;66.63;;;61.93;;
14187;SDS011;7175;51.978;5.330;2022-10-16T05:54:07;65.13;;;60.63;;
14187;SDS011;7175;51.978;5.330;2022-10-16T05:56:36;64.73;;;60.23;;
14187;SDS011;7175;51.978;5.330;2022-10-16T05:59:04;65.60;;;61.00;;
14187;SDS011;7175;51.978;5.330;2022-10-16T06:01:32;67.37;;;62.67;;
14187;SDS011;7175;51.978;5.330;2022-10-16T06:04:01;67.03;;;62.50;;
14187;SDS011;7175;51.978;5.330;2022-10-16T06:06:30;66.80;;;62.10;;
14187;SDS011;7175;51.978;5.330;2022-10-16T06:08:59;66.00;;;61.40;;
14187;SDS011;7175;51.978;5.330;2022-10-16T06:11:29;65.30;;;60.80;;
14187;SDS011;7175;51.978;5.330;2022-10-16T06:13:59;66.00;;;61.40;;
14187;SDS011;7175;51.978;5.330;2022-10-16T06:16:33;67.50;;;62.90;;
14187;SDS011;7175;51.978;5.330;2022-10-16T06:19:03;64.57;;;60.17;;
14187;SDS011;7175;51.978;5.330;2022-10-16T06:21:33;66.80;;;62.30;;
14187;SDS011;7175;51.978;5.330;2022-10-16T06:24:02;61.80;;;57.50;;
14187;SDS011;7175;51.978;5.330;2022-10-16T06:26:31;62.57;;;58.27;;
14187;SDS011;7175;51.978;5.330;2022-10-16T06:28:59;58.77;;;54.67;;
14187;SDS011;7175;51.978;5.330;2022-10-16T06:31:28;58.10;;;54.10;;
14187;SDS011;7175;51.978;5.330;2022-10-16T06:33:58;59.07;;;55.07;;
14187;SDS011;7175;51.978;5.330;2022-10-16T06:36:26;59.30;;;55.30;;
14187;SDS011;7175;51.978;5.330;2022-10-16T06:38:54;57.30;;;53.40;;
14187;SDS011;7175;51.978;5.330;2022-10-16T06:41:24;54.23;;;50.50;;
14187;SDS011;7175;51.978;5.330;2022-10-16T06:43:52;54.87;;;51.07;;
14187;SDS011;7175;51.978;5.330;2022-10-16T06:46:21;51.33;;;47.73;;
14187;SDS011;7175;51.978;5.330;2022-10-16T06:48:50;52.10;;;48.40;;
14187;SDS011;7175;51.978;5.330;2022-10-16T06:51:20;49.97;;;46.47;;
14187;SDS011;7175;51.978;5.330;2022-10-16T06:53:49;50.97;;;47.37;;
14187;SDS011;7175;51.978;5.330;2022-10-16T06:56:35;52.70;;;49.00;;
14187;SDS011;7175;51.978;5.330;2022-10-16T06:59:04;52.10;;;48.40;;
14187;SDS011;7175;51.978;5.330;2022-10-16T07:01:32;51.50;;;47.83;;
14187;SDS011;7175;51.978;5.330;2022-10-16T07:04:00;51.60;;;47.90;;
14187;SDS011;7175;51.978;5.330;2022-10-16T07:06:31;51.77;;;48.07;;
14187;SDS011;7175;51.978;5.330;2022-10-16T07:09:04;48.80;;;45.30;;
14187;SDS011;7175;51.978;5.330;2022-10-16T07:11:33;48.13;;;44.63;;
14187;SDS011;7175;51.978;5.330;2022-10-16T07:14:04;48.37;;;44.90;;
14187;SDS011;7175;51.978;5.330;2022-10-16T07:16:32;50.23;;;46.70;;
14187;SDS011;7175;51.978;5.330;2022-10-16T07:19:01;50.70;;;47.10;;
14187;SDS011;7175;51.978;5.330;2022-10-16T07:21:30;52.53;;;48.83;;
14187;SDS011;7175;51.978;5.330;2022-10-16T07:24:02;50.37;;;46.77;;
14187;SDS011;7175;51.978;5.330;2022-10-16T07:26:33;47.10;;;43.70;;
14187;SDS011;7175;51.978;5.330;2022-10-16T07:29:06;46.63;;;43.27;;
14187;SDS011;7175;51.978;5.330;2022-10-16T07:31:35;49.23;;;45.83;;
14187;SDS011;7175;51.978;5.330;2022-10-16T07:34:04;47.27;;;43.97;;
14187;SDS011;7175;51.978;5.330;2022-10-16T07:36:32;47.00;;;43.70;;
14187;SDS011;7175;51.978;5.330;2022-10-16T07:39:00;48.50;;;45.10;;
14187;SDS011;7175;51.978;5.330;2022-10-16T07:41:28;45.80;;;42.60;;
14187;SDS011;7175;51.978;5.330;2022-10-16T07:44:00;45.00;;;41.80;;
14187;SDS011;7175;51.978;5.330;2022-10-16T07:46:28;44.23;;;41.03;;
14187;SDS011;7175;51.978;5.330;2022-10-16T07:48:57;44.80;;;41.60;;
14187;SDS011;7175;51.978;5.330;2022-10-16T07:51:25;43.70;;;40.60;;
14187;SDS011;7175;51.978;5.330;2022-10-16T07:53:53;43.53;;;40.43;;
14187;SDS011;7175;51.978;5.330;2022-10-16T07:56:22;44.20;;;41.10;;
14187;SDS011;7175;51.978;5.330;2022-10-16T07:58:50;43.43;;;40.33;;
14187;SDS011;7175;51.978;5.330;2022-10-16T08:01:20;43.60;;;40.50;;
14187;SDS011;7175;51.978;5.330;2022-10-16T08:03:49;42.67;;;39.67;;
14187;SDS011;7175;51.978;5.330;2022-10-16T08:06:20;42.90;;;39.80;;
14187;SDS011;7175;51.978;5.330;2022-10-16T08:08:53;44.23;;;41.13;;
14187;SDS011;7175;51.978;5.330;2022-10-16T08:11:22;44.90;;;41.70;;
14187;SDS011;7175;51.978;5.330;2022-10-16T08:13:50;46.80;;;43.60;;
14187;SDS011;7175;51.978;5.330;2022-10-16T08:16:20;44.87;;;41.77;;
14187;SDS011;7175;51.978;5.330;2022-10-16T08:18:49;41.47;;;38.57;;
14187;SDS011;7175;51.978;5.330;2022-10-16T08:21:18;42.03;;;39.13;;
14187;SDS011;7175;51.978;5.330;2022-10-16T08:23:49;41.67;;;38.77;;
14187;SDS011;7175;51.978;5.330;2022-10-16T08:26:23;39.17;;;36.47;;
14187;SDS011;7175;51.978;5.330;2022-10-16T08:28:53;39.47;;;36.77;;
14187;SDS011;7175;51.978;5.330;2022-10-16T08:31:23;39.40;;;35.93;;
14187;SDS011;7175;51.978;5.330;2022-10-16T08:33:53;38.30;;;35.70;;
14187;SDS011;7175;51.978;5.330;2022-10-16T08:36:21;37.00;;;34.40;;
14187;SDS011;7175;51.978;5.330;2022-10-16T08:38:49;35.90;;;33.40;;
14187;SDS011;7175;51.978;5.330;2022-10-16T08:41:23;34.07;;;31.67;;
14187;SDS011;7175;51.978;5.330;2022-10-16T08:44:18;32.67;;;30.37;;
14187;SDS011;7175;51.978;5.330;2022-10-16T08:47:00;33.93;;;31.53;;
14187;SDS011;7175;51.978;5.330;2022-10-16T08:49:36;31.20;;;28.90;;
14187;SDS011;7175;51.978;5.330;2022-10-16T08:52:07;29.33;;;27.23;;
14187;SDS011;7175;51.978;5.330;2022-10-16T08:54:41;29.87;;;27.67;;
14187;SDS011;7175;51.978;5.330;2022-10-16T08:57:15;29.77;;;27.57;;
14187;SDS011;7175;51.978;5.330;2022-10-16T08:59:50;28.40;;;26.30;;
14187;SDS011;7175;51.978;5.330;2022-10-16T09:02:24;27.17;;;25.13;;
14187;SDS011;7175;51.978;5.330;2022-10-16T09:05:01;28.37;;;26.27;;
14187;SDS011;7175;51.978;5.330;2022-10-16T09:07:46;27.37;;;25.27;;
14187;SDS011;7175;51.978;5.330;2022-10-16T09:10:23;26.60;;;24.50;;
14187;SDS011;7175;51.978;5.330;2022-10-16T09:12:58;26.10;;;24.10;;
14187;SDS011;7175;51.978;5.330;2022-10-16T09:15:39;25.83;;;23.83;;
14187;SDS011;7175;51.978;5.330;2022-10-16T09:18:15;26.27;;;24.23;;
14187;SDS011;7175;51.978;5.330;2022-10-16T09:20:59;26.47;;;24.47;;
14187;SDS011;7175;51.978;5.330;2022-10-16T09:23:34;27.70;;;25.60;;
14187;SDS011;7175;51.978;5.330;2022-10-16T09:26:05;26.30;;;24.30;;
14187;SDS011;7175;51.978;5.330;2022-10-16T09:28:37;25.37;;;23.47;;
14187;SDS011;7175;51.978;5.330;2022-10-16T09:31:07;25.60;;;23.60;;
14187;SDS011;7175;51.978;5.330;2022-10-16T09:33:43;25.50;;;23.60;;
14187;SDS011;7175;51.978;5.330;2022-10-16T09:36:15;25.23;;;23.17;;
14187;SDS011;7175;51.978;5.330;2022-10-16T09:38:45;25.60;;;23.60;;
14187;SDS011;7175;51.978;5.330;2022-10-16T09:41:14;24.57;;;22.67;;
14187;SDS011;7175;51.978;5.330;2022-10-16T09:43:48;25.67;;;23.70;;
14187;SDS011;7175;51.978;5.330;2022-10-16T09:46:22;28.03;;;25.83;;
14187;SDS011;7175;51.978;5.330;2022-10-16T09:48:56;25.10;;;23.20;;
14187;SDS011;7175;51.978;5.330;2022-10-16T09:51:27;23.73;;;21.93;;
14187;SDS011;7175;51.978;5.330;2022-10-16T09:53:58;25.17;;;23.27;;
14187;SDS011;7175;51.978;5.330;2022-10-16T09:56:28;23.77;;;21.87;;
14187;SDS011;7175;51.978;5.330;2022-10-16T09:58:59;34.92;;;32.63;;
14187;SDS011;7175;51.978;5.330;2022-10-16T10:01:31;30.10;;;28.00;;
14187;SDS011;7175;51.978;5.330;2022-10-16T10:04:06;27.70;;;25.70;;
14187;SDS011;7175;51.978;5.330;2022-10-16T10:06:36;24.40;;;22.60;;
14187;SDS011;7175;51.978;5.330;2022-10-16T10:09:17;27.90;;;24.40;;
14187;SDS011;7175;51.978;5.330;2022-10-16T10:11:49;23.60;;;21.90;;
14187;SDS011;7175;51.978;5.330;2022-10-16T10:14:20;23.90;;;22.10;;
14187;SDS011;7175;51.978;5.330;2022-10-16T10:16:51;23.87;;;22.07;;
14187;SDS011;7175;51.978;5.330;2022-10-16T10:19:22;23.27;;;21.47;;
14187;SDS011;7175;51.978;5.330;2022-10-16T10:21:57;23.20;;;21.40;;
14187;SDS011;7175;51.978;5.330;2022-10-16T10:24:25;23.07;;;21.27;;
14187;SDS011;7175;51.978;5.330;2022-10-16T10:26:54;24.30;;;22.50;;
14187;SDS011;7175;51.978;5.330;2022-10-16T10:29:36;24.73;;;22.97;;
14187;SDS011;7175;51.978;5.330;2022-10-16T10:32:18;26.33;;;24.43;;
14187;SDS011;7175;51.978;5.330;2022-10-16T10:35:02;26.40;;;24.50;;
14187;SDS011;7175;51.978;5.330;2022-10-16T10:37:53;25.50;;;23.70;;
14187;SDS011;7175;51.978;5.330;2022-10-16T10:40:34;24.07;;;22.37;;
14187;SDS011;7175;51.978;5.330;2022-10-16T10:43:12;24.50;;;22.80;;
14187;SDS011;7175;51.978;5.330;2022-10-16T10:45:54;24.50;;;22.70;;
14187;SDS011;7175;51.978;5.330;2022-10-16T10:48:38;24.10;;;22.40;;
14187;SDS011;7175;51.978;5.330;2022-10-16T10:51:28;23.87;;;22.20;;
14187;SDS011;7175;51.978;5.330;2022-10-16T10:54:09;25.20;;;23.40;;
14187;SDS011;7175;51.978;5.330;2022-10-16T10:56:45;21.70;;;20.00;;
14187;SDS011;7175;51.978;5.330;2022-10-16T10:59:32;20.30;;;18.70;;
14187;SDS011;7175;51.978;5.330;2022-10-16T11:02:32;28.50;;;19.00;;
14187;SDS011;7175;51.978;5.330;2022-10-16T11:08:02;19.87;;;18.37;;
14187;SDS011;7175;51.978;5.330;2022-10-16T11:10:40;20.10;;;18.60;;
14187;SDS011;7175;51.978;5.330;2022-10-16T11:13:16;20.43;;;18.93;;
14187;SDS011;7175;51.978;5.330;2022-10-16T11:15:58;21.00;;;19.40;;
14187;SDS011;7175;51.978;5.330;2022-10-16T11:18:30;20.07;;;18.57;;
14187;SDS011;7175;51.978;5.330;2022-10-16T11:21:07;19.40;;;18.00;;
14187;SDS011;7175;51.978;5.330;2022-10-16T11:23:41;19.80;;;18.30;;
14187;SDS011;7175;51.978;5.330;2022-10-16T11:26:16;20.30;;;18.80;;
14187;SDS011;7175;51.978;5.330;2022-10-16T11:28:47;21.20;;;19.60;;
14187;SDS011;7175;51.978;5.330;2022-10-16T11:31:18;19.43;;;17.93;;
14187;SDS011;7175;51.978;5.330;2022-10-16T11:33:52;21.63;;;19.93;;
14187;SDS011;7175;51.978;5.330;2022-10-16T11:36:33;19.80;;;18.30;;
14187;SDS011;7175;51.978;5.330;2022-10-16T11:39:11;20.87;;;19.27;;
14187;SDS011;7175;51.978;5.330;2022-10-16T11:41:47;19.53;;;18.03;;
14187;SDS011;7175;51.978;5.330;2022-10-16T11:44:24;19.90;;;18.40;;
14187;SDS011;7175;51.978;5.330;2022-10-16T11:47:05;20.40;;;18.80;;
14187;SDS011;7175;51.978;5.330;2022-10-16T11:50:02;19.60;;;18.10;;
14187;SDS011;7175;51.978;5.330;2022-10-16T11:52:42;19.27;;;17.77;;
14187;SDS011;7175;51.978;5.330;2022-10-16T11:55:20;19.27;;;17.80;;
14187;SDS011;7175;51.978;5.330;2022-10-16T11:57:51;19.90;;;18.40;;
14187;SDS011;7175;51.978;5.330;2022-10-16T12:00:25;19.50;;;18.00;;
14187;SDS011;7175;51.978;5.330;2022-10-16T12:02:59;19.73;;;18.23;;
14187;SDS011;7175;51.978;5.330;2022-10-16T12:05:40;19.60;;;18.10;;
14187;SDS011;7175;51.978;5.330;2022-10-16T12:08:22;20.30;;;18.80;;
14187;SDS011;7175;51.978;5.330;2022-10-16T12:10:52;19.97;;;18.47;;
14187;SDS011;7175;51.978;5.330;2022-10-16T12:13:31;21.10;;;19.50;;
14187;SDS011;7175;51.978;5.330;2022-10-16T12:19:02;20.57;;;18.97;;
14187;SDS011;7175;51.978;5.330;2022-10-16T12:21:38;20.03;;;18.53;;
14187;SDS011;7175;51.978;5.330;2022-10-16T12:24:18;19.90;;;18.40;;
14187;SDS011;7175;51.978;5.330;2022-10-16T12:26:51;18.93;;;17.43;;
14187;SDS011;7175;51.978;5.330;2022-10-16T12:29:22;20.60;;;19.00;;
14187;SDS011;7175;51.978;5.330;2022-10-16T12:32:00;19.50;;;18.10;;
14187;SDS011;7175;51.978;5.330;2022-10-16T12:34:33;19.77;;;18.27;;
14187;SDS011;7175;51.978;5.330;2022-10-16T12:37:10;19.87;;;18.43;;
14187;SDS011;7175;51.978;5.330;2022-10-16T12:39:42;19.63;;;18.17;;
14187;SDS011;7175;51.978;5.330;2022-10-16T12:42:21;19.03;;;17.63;;
14187;SDS011;7175;51.978;5.330;2022-10-16T12:44:58;19.80;;;18.30;;
14187;SDS011;7175;51.978;5.330;2022-10-16T12:47:35;19.37;;;17.87;;
14187;SDS011;7175;51.978;5.330;2022-10-16T12:52:57;19.10;;;17.60;;
14187;SDS011;7175;51.978;5.330;2022-10-16T12:55:26;19.47;;;18.07;;
14187;SDS011;7175;51.978;5.330;2022-10-16T12:58:11;20.93;;;19.23;;
14187;SDS011;7175;51.978;5.330;2022-10-16T13:01:04;20.07;;;18.57;;
14187;SDS011;7175;51.978;5.330;2022-10-16T13:03:44;20.10;;;18.60;;
14187;SDS011;7175;51.978;5.330;2022-10-16T13:06:23;19.73;;;18.23;;
14187;SDS011;7175;51.978;5.330;2022-10-16T13:09:02;19.30;;;17.90;;
14187;SDS011;7175;51.978;5.330;2022-10-16T13:12:06;20.10;;;18.60;;
14187;SDS011;7175;51.978;5.330;2022-10-16T13:17:40;19.63;;;18.13;;
14187;SDS011;7175;51.978;5.330;2022-10-16T13:20:16;19.40;;;18.00;;
14187;SDS011;7175;51.978;5.330;2022-10-16T13:22:51;20.17;;;18.23;;
14187;SDS011;7175;51.978;5.330;2022-10-16T13:25:28;19.60;;;18.10;;
14187;SDS011;7175;51.978;5.330;2022-10-16T13:28:05;19.57;;;18.17;;
14187;SDS011;7175;51.978;5.330;2022-10-16T13:30:38;19.03;;;17.63;;
14187;SDS011;7175;51.978;5.330;2022-10-16T13:33:12;19.17;;;17.67;;
14187;SDS011;7175;51.978;5.330;2022-10-16T13:35:47;18.90;;;17.40;;
14187;SDS011;7175;51.978;5.330;2022-10-16T13:38:17;19.30;;;17.80;;
14187;SDS011;7175;51.978;5.330;2022-10-16T13:40:51;19.17;;;17.67;;
14187;SDS011;7175;51.978;5.330;2022-10-16T13:43:22;19.90;;;18.30;;
14187;SDS011;7175;51.978;5.330;2022-10-16T13:45:55;18.97;;;17.47;;
14187;SDS011;7175;51.978;5.330;2022-10-16T13:48:25;18.77;;;17.27;;
14187;SDS011;7175;51.978;5.330;2022-10-16T13:51:00;19.80;;;18.00;;
14187;SDS011;7175;51.978;5.330;2022-10-16T13:53:30;20.00;;;18.00;;
14187;SDS011;7175;51.978;5.330;2022-10-16T13:56:00;19.57;;;18.07;;
14187;SDS011;7175;51.978;5.330;2022-10-16T13:58:31;19.60;;;17.90;;
14187;SDS011;7175;51.978;5.330;2022-10-16T14:01:01;19.60;;;18.00;;
14187;SDS011;7175;51.978;5.330;2022-10-16T14:03:32;18.97;;;17.40;;
14187;SDS011;7175;51.978;5.330;2022-10-16T14:06:02;19.60;;;17.80;;
14187;SDS011;7175;51.978;5.330;2022-10-16T14:08:35;18.73;;;17.23;;
14187;SDS011;7175;51.978;5.330;2022-10-16T14:11:04;19.17;;;17.67;;
14187;SDS011;7175;51.978;5.330;2022-10-16T14:13:33;18.90;;;17.40;;
14187;SDS011;7175;51.978;5.330;2022-10-16T14:16:07;18.33;;;16.83;;
14187;SDS011;7175;51.978;5.330;2022-10-16T14:18:38;18.30;;;16.80;;
14187;SDS011;7175;51.978;5.330;2022-10-16T14:21:10;18.20;;;16.70;;
14187;SDS011;7175;51.978;5.330;2022-10-16T14:23:41;19.10;;;17.50;;
14187;SDS011;7175;51.978;5.330;2022-10-16T14:26:14;18.57;;;17.07;;
14187;SDS011;7175;51.978;5.330;2022-10-16T14:28:44;18.50;;;17.00;;
14187;SDS011;7175;51.978;5.330;2022-10-16T14:31:24;20.20;;;18.30;;
14187;SDS011;7175;51.978;5.330;2022-10-16T14:33:57;19.30;;;17.70;;
14187;SDS011;7175;51.978;5.330;2022-10-16T14:36:26;18.57;;;17.07;;
14187;SDS011;7175;51.978;5.330;2022-10-16T14:38:59;19.20;;;17.70;;
14187;SDS011;7175;51.978;5.330;2022-10-16T14:41:30;19.00;;;17.50;;
14187;SDS011;7175;51.978;5.330;2022-10-16T14:44:01;19.13;;;17.63;;
14187;SDS011;7175;51.978;5.330;2022-10-16T14:46:33;18.93;;;17.43;;
14187;SDS011;7175;51.978;5.330;2022-10-16T14:49:05;19.53;;;18.03;;
14187;SDS011;7175;51.978;5.330;2022-10-16T14:51:42;21.43;;;19.50;;
14187;SDS011;7175;51.978;5.330;2022-10-16T14:54:12;22.57;;;20.67;;
14187;SDS011;7175;51.978;5.330;2022-10-16T14:56:43;19.17;;;17.67;;
14187;SDS011;7175;51.978;5.330;2022-10-16T14:59:15;19.10;;;17.60;;
14187;SDS011;7175;51.978;5.330;2022-10-16T15:01:47;19.80;;;18.30;;
14187;SDS011;7175;51.978;5.330;2022-10-16T15:04:15;20.47;;;18.67;;
14187;SDS011;7175;51.978;5.330;2022-10-16T15:06:45;19.20;;;17.70;;
14187;SDS011;7175;51.978;5.330;2022-10-16T15:09:13;19.27;;;17.70;;
14187;SDS011;7175;51.978;5.330;2022-10-16T15:11:41;19.47;;;17.97;;
14187;SDS011;7175;51.978;5.330;2022-10-16T15:14:10;19.40;;;17.90;;
14187;SDS011;7175;51.978;5.330;2022-10-16T15:16:40;19.67;;;18.17;;